sensor_id;sensor_type;location;lat;lon;timestamp;noise_LAeq;noise_LA_min;noise_LA_max;noise_LA01;noise_LA95
69609;Laerm;56815;52.320;4.858;2022-08-06T00:00:08;34.04;32.23;37.22;;
69609;Laerm;56815;52.320;4.858;2022-08-06T00:00:19;35.15;32.35;40.87;;
69609;Laerm;56815;52.320;4.858;2022-08-06T00:00:29;35.06;32.61;46.58;;
69609;Laerm;56815;52.320;4.858;2022-08-06T00:00:39;34.64;32.47;39.45;;
69609;Laerm;56815;52.320;4.858;2022-08-06T00:00:52;34.60;31.99;39.61;;
69609;Laerm;56815;52.320;4.858;2022-08-06T00:01:02;34.68;32.62;37.08;;
69609;Laerm;56815;52.320;4.858;2022-08-06T00:01:12;34.26;32.05;36.65;;
69609;Laerm;56815;52.320;4.858;2022-08-06T00:01:22;34.37;31.74;37.93;;
69609;Laerm;56815;52.320;4.858;2022-08-06T00:01:33;33.87;31.86;37.54;;
69609;Laerm;56815;52.320;4.858;2022-08-06T00:01:43;34.06;31.81;37.57;;
69609;Laerm;56815;52.320;4.858;2022-08-06T00:01:54;34.76;32.39;38.38;;
69609;Laerm;56815;52.320;4.858;2022-08-06T00:02:04;34.75;32.66;37.10;;
69609;Laerm;56815;52.320;4.858;2022-08-06T00:02:15;33.80;31.40;36.35;;
69609;Laerm;56815;52.320;4.858;2022-08-06T00:02:26;34.30;31.31;39.36;;
69609;Laerm;56815;52.320;4.858;2022-08-06T00:02:37;34.05;31.57;41.51;;
69609;Laerm;56815;52.320;4.858;2022-08-06T00:02:49;34.01;32.23;38.81;;
69609;Laerm;56815;52.320;4.858;2022-08-06T00:02:59;33.61;31.63;35.31;;
69609;Laerm;56815;52.320;4.858;2022-08-06T00:03:09;34.50;31.93;48.24;;
69609;Laerm;56815;52.320;4.858;2022-08-06T00:03:19;35.59;32.27;51.23;;
69609;Laerm;56815;52.320;4.858;2022-08-06T00:03:30;39.85;31.34;57.33;;
69609;Laerm;56815;52.320;4.858;2022-08-06T00:03:40;35.28;31.79;45.49;;
69609;Laerm;56815;52.320;4.858;2022-08-06T00:03:50;34.61;32.43;37.27;;
69609;Laerm;56815;52.320;4.858;2022-08-06T00:04:01;35.06;32.00;45.94;;
69609;Laerm;56815;52.320;4.858;2022-08-06T00:04:11;34.03;32.45;36.61;;
69609;Laerm;56815;52.320;4.858;2022-08-06T00:04:21;34.06;32.39;35.65;;
69609;Laerm;56815;52.320;4.858;2022-08-06T00:04:32;34.25;32.03;40.09;;
69609;Laerm;56815;52.320;4.858;2022-08-06T00:04:42;35.16;32.78;37.88;;
69609;Laerm;56815;52.320;4.858;2022-08-06T00:04:52;34.03;32.19;36.07;;
69609;Laerm;56815;52.320;4.858;2022-08-06T00:05:03;35.28;32.79;38.26;;
69609;Laerm;56815;52.320;4.858;2022-08-06T00:05:14;37.86;33.39;43.36;;
69609;Laerm;56815;52.320;4.858;2022-08-06T00:05:24;41.60;35.06;46.54;;
69609;Laerm;56815;52.320;4.858;2022-08-06T00:05:36;43.49;38.38;48.09;;
69609;Laerm;56815;52.320;4.858;2022-08-06T00:05:46;47.59;41.40;59.85;;
69609;Laerm;56815;52.320;4.858;2022-08-06T00:05:57;49.72;43.24;56.70;;
69609;Laerm;56815;52.320;4.858;2022-08-06T00:06:07;47.64;40.36;56.37;;
69609;Laerm;56815;52.320;4.858;2022-08-06T00:06:18;39.96;35.05;45.48;;
69609;Laerm;56815;52.320;4.858;2022-08-06T00:06:28;35.56;33.06;38.38;;
69609;Laerm;56815;52.320;4.858;2022-08-06T00:06:39;34.56;32.56;36.84;;
69609;Laerm;56815;52.320;4.858;2022-08-06T00:06:50;34.37;31.98;36.30;;
69609;Laerm;56815;52.320;4.858;2022-08-06T00:07:00;34.88;33.25;36.82;;
69609;Laerm;56815;52.320;4.858;2022-08-06T00:07:10;34.47;32.06;36.71;;
69609;Laerm;56815;52.320;4.858;2022-08-06T00:07:21;33.74;31.85;35.96;;
69609;Laerm;56815;52.320;4.858;2022-08-06T00:07:31;33.99;32.05;38.96;;
69609;Laerm;56815;52.320;4.858;2022-08-06T00:07:41;33.98;32.27;35.88;;
69609;Laerm;56815;52.320;4.858;2022-08-06T00:07:52;35.13;32.37;45.91;;
69609;Laerm;56815;52.320;4.858;2022-08-06T00:08:02;34.37;32.31;40.32;;
69609;Laerm;56815;52.320;4.858;2022-08-06T00:08:12;37.03;32.36;49.54;;
69609;Laerm;56815;52.320;4.858;2022-08-06T00:08:23;35.67;32.46;49.27;;
69609;Laerm;56815;52.320;4.858;2022-08-06T00:08:33;33.90;31.95;36.88;;
69609;Laerm;56815;52.320;4.858;2022-08-06T00:08:43;34.16;32.21;36.57;;
69609;Laerm;56815;52.320;4.858;2022-08-06T00:08:54;33.72;31.87;40.27;;
69609;Laerm;56815;52.320;4.858;2022-08-06T00:09:04;33.94;31.88;35.98;;
69609;Laerm;56815;52.320;4.858;2022-08-06T00:09:14;33.91;31.93;43.39;;
69609;Laerm;56815;52.320;4.858;2022-08-06T00:09:25;33.59;31.86;35.61;;
69609;Laerm;56815;52.320;4.858;2022-08-06T00:09:40;34.25;32.35;35.77;;
69609;Laerm;56815;52.320;4.858;2022-08-06T00:09:50;34.88;33.01;36.58;;
69609;Laerm;56815;52.320;4.858;2022-08-06T00:10:01;33.70;31.68;36.00;;
69609;Laerm;56815;52.320;4.858;2022-08-06T00:10:11;33.25;31.59;35.28;;
69609;Laerm;56815;52.320;4.858;2022-08-06T00:10:22;33.57;31.54;35.30;;
69609;Laerm;56815;52.320;4.858;2022-08-06T00:10:32;34.15;32.07;35.85;;
69609;Laerm;56815;52.320;4.858;2022-08-06T00:10:43;33.28;31.34;36.36;;
69609;Laerm;56815;52.320;4.858;2022-08-06T00:10:53;32.86;31.09;34.65;;
69609;Laerm;56815;52.320;4.858;2022-08-06T00:11:04;32.95;31.29;35.51;;
69609;Laerm;56815;52.320;4.858;2022-08-06T00:11:14;33.08;30.78;36.26;;
69609;Laerm;56815;52.320;4.858;2022-08-06T00:11:25;33.63;31.29;37.53;;
69609;Laerm;56815;52.320;4.858;2022-08-06T00:11:35;32.88;31.09;35.00;;
69609;Laerm;56815;52.320;4.858;2022-08-06T00:11:45;33.49;31.41;37.56;;
69609;Laerm;56815;52.320;4.858;2022-08-06T00:11:59;32.96;31.02;35.28;;
69609;Laerm;56815;52.320;4.858;2022-08-06T00:12:10;33.19;31.23;37.96;;
69609;Laerm;56815;52.320;4.858;2022-08-06T00:12:21;33.17;31.29;35.54;;
69609;Laerm;56815;52.320;4.858;2022-08-06T00:12:32;33.65;31.87;37.52;;
69609;Laerm;56815;52.320;4.858;2022-08-06T00:12:43;33.44;31.63;45.79;;
69609;Laerm;56815;52.320;4.858;2022-08-06T00:12:54;33.31;31.33;36.04;;
69609;Laerm;56815;52.320;4.858;2022-08-06T00:13:04;34.27;31.87;39.43;;
69609;Laerm;56815;52.320;4.858;2022-08-06T00:13:14;34.87;32.40;47.01;;
69609;Laerm;56815;52.320;4.858;2022-08-06T00:13:25;33.62;31.77;36.14;;
69609;Laerm;56815;52.320;4.858;2022-08-06T00:13:35;33.35;31.38;40.03;;
69609;Laerm;56815;52.320;4.858;2022-08-06T00:13:45;34.44;31.25;49.57;;
69609;Laerm;56815;52.320;4.858;2022-08-06T00:13:56;33.65;30.76;45.57;;
69609;Laerm;56815;52.320;4.858;2022-08-06T00:14:06;32.86;31.08;35.02;;
69609;Laerm;56815;52.320;4.858;2022-08-06T00:14:16;33.20;31.41;39.32;;
69609;Laerm;56815;52.320;4.858;2022-08-06T00:14:27;33.00;30.92;35.80;;
69609;Laerm;56815;52.320;4.858;2022-08-06T00:14:37;33.25;31.47;35.74;;
69609;Laerm;56815;52.320;4.858;2022-08-06T00:14:48;34.36;31.54;37.49;;
69609;Laerm;56815;52.320;4.858;2022-08-06T00:14:58;34.86;32.33;44.95;;
69609;Laerm;56815;52.320;4.858;2022-08-06T00:15:09;34.18;31.67;38.50;;
69609;Laerm;56815;52.320;4.858;2022-08-06T00:15:20;33.87;31.85;35.92;;
69609;Laerm;56815;52.320;4.858;2022-08-06T00:15:30;34.12;31.76;36.44;;
69609;Laerm;56815;52.320;4.858;2022-08-06T00:15:41;34.25;32.12;45.31;;
69609;Laerm;56815;52.320;4.858;2022-08-06T00:15:51;35.07;32.76;47.07;;
69609;Laerm;56815;52.320;4.858;2022-08-06T00:16:02;34.71;32.43;45.15;;
69609;Laerm;56815;52.320;4.858;2022-08-06T00:16:12;33.71;31.57;35.34;;
69609;Laerm;56815;52.320;4.858;2022-08-06T00:16:23;33.76;31.69;35.87;;
69609;Laerm;56815;52.320;4.858;2022-08-06T00:16:33;33.95;31.83;36.14;;
69609;Laerm;56815;52.320;4.858;2022-08-06T00:16:44;34.14;32.20;35.99;;
69609;Laerm;56815;52.320;4.858;2022-08-06T00:16:54;33.78;32.12;36.10;;
69609;Laerm;56815;52.320;4.858;2022-08-06T00:17:04;33.57;32.08;41.36;;
69609;Laerm;56815;52.320;4.858;2022-08-06T00:17:15;33.54;31.88;39.17;;
69609;Laerm;56815;52.320;4.858;2022-08-06T00:17:25;33.78;31.40;39.32;;
69609;Laerm;56815;52.320;4.858;2022-08-06T00:17:35;33.61;31.89;36.52;;
69609;Laerm;56815;52.320;4.858;2022-08-06T00:17:48;33.79;31.82;36.85;;
69609;Laerm;56815;52.320;4.858;2022-08-06T00:17:58;33.71;31.81;39.10;;
69609;Laerm;56815;52.320;4.858;2022-08-06T00:18:08;34.03;31.92;38.36;;
69609;Laerm;56815;52.320;4.858;2022-08-06T00:18:19;33.97;32.00;36.19;;
69609;Laerm;56815;52.320;4.858;2022-08-06T00:18:29;33.97;32.10;35.72;;
69609;Laerm;56815;52.320;4.858;2022-08-06T00:18:39;34.19;31.84;38.69;;
69609;Laerm;56815;52.320;4.858;2022-08-06T00:18:50;33.91;31.61;37.16;;
69609;Laerm;56815;52.320;4.858;2022-08-06T00:19:00;33.54;31.86;36.98;;
69609;Laerm;56815;52.320;4.858;2022-08-06T00:19:10;34.16;31.86;39.60;;
69609;Laerm;56815;52.320;4.858;2022-08-06T00:19:21;34.30;32.17;37.58;;
69609;Laerm;56815;52.320;4.858;2022-08-06T00:19:31;34.47;32.00;43.18;;
69609;Laerm;56815;52.320;4.858;2022-08-06T00:19:42;34.27;32.18;36.75;;
69609;Laerm;56815;52.320;4.858;2022-08-06T00:19:52;34.66;31.78;43.89;;
69609;Laerm;56815;52.320;4.858;2022-08-06T00:20:03;34.93;32.16;40.18;;
69609;Laerm;56815;52.320;4.858;2022-08-06T00:20:14;34.42;32.32;38.32;;
69609;Laerm;56815;52.320;4.858;2022-08-06T00:20:25;34.15;32.13;36.06;;
69609;Laerm;56815;52.320;4.858;2022-08-06T00:20:35;34.76;32.14;43.70;;
69609;Laerm;56815;52.320;4.858;2022-08-06T00:20:46;34.28;32.44;36.33;;
69609;Laerm;56815;52.320;4.858;2022-08-06T00:20:56;34.09;32.36;36.94;;
69609;Laerm;56815;52.320;4.858;2022-08-06T00:21:06;33.93;31.79;39.46;;
69609;Laerm;56815;52.320;4.858;2022-08-06T00:21:17;34.00;32.09;35.99;;
69609;Laerm;56815;52.320;4.858;2022-08-06T00:21:28;34.31;32.51;35.96;;
69609;Laerm;56815;52.320;4.858;2022-08-06T00:21:38;34.25;32.18;38.69;;
69609;Laerm;56815;52.320;4.858;2022-08-06T00:21:49;33.78;31.80;36.49;;
69609;Laerm;56815;52.320;4.858;2022-08-06T00:21:59;34.60;31.83;39.78;;
69609;Laerm;56815;52.320;4.858;2022-08-06T00:22:10;36.62;33.75;40.46;;
69609;Laerm;56815;52.320;4.858;2022-08-06T00:22:20;36.81;33.88;40.25;;
69609;Laerm;56815;52.320;4.858;2022-08-06T00:22:30;37.14;34.14;41.93;;
69609;Laerm;56815;52.320;4.858;2022-08-06T00:22:41;38.79;34.72;42.84;;
69609;Laerm;56815;52.320;4.858;2022-08-06T00:22:52;38.73;35.18;43.13;;
69609;Laerm;56815;52.320;4.858;2022-08-06T00:23:03;39.48;35.19;43.96;;
69609;Laerm;56815;52.320;4.858;2022-08-06T00:23:13;38.30;34.94;41.66;;
69609;Laerm;56815;52.320;4.858;2022-08-06T00:23:23;36.84;34.24;41.20;;
69609;Laerm;56815;52.320;4.858;2022-08-06T00:23:33;36.26;34.08;39.63;;
69609;Laerm;56815;52.320;4.858;2022-08-06T00:23:44;36.14;33.30;44.13;;
69609;Laerm;56815;52.320;4.858;2022-08-06T00:23:54;36.28;33.53;44.99;;
69609;Laerm;56815;52.320;4.858;2022-08-06T00:24:04;35.80;33.72;37.79;;
69609;Laerm;56815;52.320;4.858;2022-08-06T00:24:15;35.53;33.29;44.74;;
69609;Laerm;56815;52.320;4.858;2022-08-06T00:24:25;35.18;32.69;40.19;;
69609;Laerm;56815;52.320;4.858;2022-08-06T00:24:35;34.97;33.04;37.72;;
69609;Laerm;56815;52.320;4.858;2022-08-06T00:24:46;35.87;33.48;37.85;;
69609;Laerm;56815;52.320;4.858;2022-08-06T00:24:56;35.14;33.53;37.15;;
69609;Laerm;56815;52.320;4.858;2022-08-06T00:25:07;35.18;32.35;38.69;;
69609;Laerm;56815;52.320;4.858;2022-08-06T00:25:19;35.53;33.00;43.33;;
69609;Laerm;56815;52.320;4.858;2022-08-06T00:25:29;35.29;32.77;40.49;;
69609;Laerm;56815;52.320;4.858;2022-08-06T00:25:39;35.04;33.08;38.22;;
69609;Laerm;56815;52.320;4.858;2022-08-06T00:25:50;34.98;32.86;37.34;;
69609;Laerm;56815;52.320;4.858;2022-08-06T00:26:01;35.42;33.32;40.59;;
69609;Laerm;56815;52.320;4.858;2022-08-06T00:26:11;35.42;32.99;39.16;;
69609;Laerm;56815;52.320;4.858;2022-08-06T00:26:22;34.73;32.52;36.55;;
69609;Laerm;56815;52.320;4.858;2022-08-06T00:26:34;35.36;32.80;40.33;;
69609;Laerm;56815;52.320;4.858;2022-08-06T00:26:44;35.01;32.69;37.68;;
69609;Laerm;56815;52.320;4.858;2022-08-06T00:26:55;35.53;33.30;38.87;;
69609;Laerm;56815;52.320;4.858;2022-08-06T00:27:05;35.82;32.93;40.85;;
69609;Laerm;56815;52.320;4.858;2022-08-06T00:27:16;35.01;32.74;37.44;;
69609;Laerm;56815;52.320;4.858;2022-08-06T00:27:26;35.84;33.16;39.29;;
69609;Laerm;56815;52.320;4.858;2022-08-06T00:27:37;36.64;34.24;40.95;;
69609;Laerm;56815;52.320;4.858;2022-08-06T00:27:50;36.06;33.00;43.33;;
69609;Laerm;56815;52.320;4.858;2022-08-06T00:28:00;35.81;33.41;41.01;;
69609;Laerm;56815;52.320;4.858;2022-08-06T00:28:11;35.60;33.70;37.49;;
69609;Laerm;56815;52.320;4.858;2022-08-06T00:28:22;36.13;33.27;40.25;;
69609;Laerm;56815;52.320;4.858;2022-08-06T00:28:32;36.14;33.83;40.37;;
69609;Laerm;56815;52.320;4.858;2022-08-06T00:28:42;35.49;32.68;38.90;;
69609;Laerm;56815;52.320;4.858;2022-08-06T00:28:53;35.59;33.57;41.46;;
69609;Laerm;56815;52.320;4.858;2022-08-06T00:29:04;36.11;33.84;38.70;;
69609;Laerm;56815;52.320;4.858;2022-08-06T00:29:14;35.80;33.19;43.45;;
69609;Laerm;56815;52.320;4.858;2022-08-06T00:29:25;36.16;33.82;41.87;;
69609;Laerm;56815;52.320;4.858;2022-08-06T00:29:35;35.86;33.55;40.85;;
69609;Laerm;56815;52.320;4.858;2022-08-06T00:29:45;36.02;33.70;38.67;;
69609;Laerm;56815;52.320;4.858;2022-08-06T00:29:56;36.87;34.04;45.25;;
69609;Laerm;56815;52.320;4.858;2022-08-06T00:30:07;36.94;34.19;41.01;;
69609;Laerm;56815;52.320;4.858;2022-08-06T00:30:18;37.49;34.89;41.24;;
69609;Laerm;56815;52.320;4.858;2022-08-06T00:30:28;43.63;34.60;66.25;;
69609;Laerm;56815;52.320;4.858;2022-08-06T00:30:38;36.83;34.27;40.19;;
69609;Laerm;56815;52.320;4.858;2022-08-06T00:30:49;36.41;33.72;39.72;;
69609;Laerm;56815;52.320;4.858;2022-08-06T00:31:00;36.53;34.15;40.27;;
69609;Laerm;56815;52.320;4.858;2022-08-06T00:31:10;36.32;34.56;38.82;;
69609;Laerm;56815;52.320;4.858;2022-08-06T00:31:21;35.98;33.61;38.95;;
69609;Laerm;56815;52.320;4.858;2022-08-06T00:31:31;35.41;32.89;38.55;;
69609;Laerm;56815;52.320;4.858;2022-08-06T00:31:41;34.90;32.77;37.40;;
69609;Laerm;56815;52.320;4.858;2022-08-06T00:31:52;35.03;33.09;38.44;;
69609;Laerm;56815;52.320;4.858;2022-08-06T00:32:02;35.05;32.85;38.49;;
69609;Laerm;56815;52.320;4.858;2022-08-06T00:32:12;34.59;32.33;36.83;;
69609;Laerm;56815;52.320;4.858;2022-08-06T00:32:23;34.95;32.55;39.41;;
69609;Laerm;56815;52.320;4.858;2022-08-06T00:32:33;34.97;32.61;37.78;;
69609;Laerm;56815;52.320;4.858;2022-08-06T00:32:43;34.40;32.17;37.76;;
69609;Laerm;56815;52.320;4.858;2022-08-06T00:32:54;35.05;32.73;40.87;;
69609;Laerm;56815;52.320;4.858;2022-08-06T00:33:06;35.21;33.43;41.70;;
69609;Laerm;56815;52.320;4.858;2022-08-06T00:33:16;35.76;32.98;38.17;;
69609;Laerm;56815;52.320;4.858;2022-08-06T00:33:27;35.15;32.74;39.19;;
69609;Laerm;56815;52.320;4.858;2022-08-06T00:33:38;34.73;32.83;37.96;;
69609;Laerm;56815;52.320;4.858;2022-08-06T00:33:48;35.47;32.92;42.68;;
69609;Laerm;56815;52.320;4.858;2022-08-06T00:33:59;35.58;33.01;37.65;;
69609;Laerm;56815;52.320;4.858;2022-08-06T00:34:13;35.47;32.55;40.21;;
69609;Laerm;56815;52.320;4.858;2022-08-06T00:34:24;35.58;33.65;37.30;;
69609;Laerm;56815;52.320;4.858;2022-08-06T00:34:34;35.52;33.88;39.49;;
69609;Laerm;56815;52.320;4.858;2022-08-06T00:34:44;35.80;33.68;37.91;;
69609;Laerm;56815;52.320;4.858;2022-08-06T00:34:55;35.66;33.24;37.85;;
69609;Laerm;56815;52.320;4.858;2022-08-06T00:35:05;36.54;34.17;39.57;;
69609;Laerm;56815;52.320;4.858;2022-08-06T00:35:16;36.39;34.34;38.54;;
69609;Laerm;56815;52.320;4.858;2022-08-06T00:35:26;35.66;32.82;37.92;;
69609;Laerm;56815;52.320;4.858;2022-08-06T00:35:36;35.75;33.60;37.96;;
69609;Laerm;56815;52.320;4.858;2022-08-06T00:35:47;35.98;33.86;39.20;;
69609;Laerm;56815;52.320;4.858;2022-08-06T00:35:57;36.03;33.80;38.37;;
69609;Laerm;56815;52.320;4.858;2022-08-06T00:36:07;35.76;33.60;38.98;;
69609;Laerm;56815;52.320;4.858;2022-08-06T00:36:18;35.55;33.05;37.43;;
69609;Laerm;56815;52.320;4.858;2022-08-06T00:36:28;35.65;33.59;39.30;;
69609;Laerm;56815;52.320;4.858;2022-08-06T00:36:39;35.32;33.40;39.86;;
69609;Laerm;56815;52.320;4.858;2022-08-06T00:36:49;35.17;33.05;40.55;;
69609;Laerm;56815;52.320;4.858;2022-08-06T00:37:00;35.20;32.72;37.45;;
69609;Laerm;56815;52.320;4.858;2022-08-06T00:37:10;35.58;33.50;37.47;;
69609;Laerm;56815;52.320;4.858;2022-08-06T00:37:20;35.45;33.26;38.09;;
69609;Laerm;56815;52.320;4.858;2022-08-06T00:37:31;35.25;33.41;36.97;;
69609;Laerm;56815;52.320;4.858;2022-08-06T00:37:42;34.75;32.06;37.06;;
69609;Laerm;56815;52.320;4.858;2022-08-06T00:37:52;34.52;32.34;36.42;;
69609;Laerm;56815;52.320;4.858;2022-08-06T00:38:02;34.69;32.66;36.84;;
69609;Laerm;56815;52.320;4.858;2022-08-06T00:38:13;34.17;32.19;36.21;;
69609;Laerm;56815;52.320;4.858;2022-08-06T00:38:23;34.66;32.59;36.23;;
69609;Laerm;56815;52.320;4.858;2022-08-06T00:38:33;34.76;32.81;36.47;;
69609;Laerm;56815;52.320;4.858;2022-08-06T00:38:44;34.27;32.17;36.16;;
69609;Laerm;56815;52.320;4.858;2022-08-06T00:38:54;34.17;31.95;37.38;;
69609;Laerm;56815;52.320;4.858;2022-08-06T00:39:05;34.32;32.26;38.44;;
69609;Laerm;56815;52.320;4.858;2022-08-06T00:39:16;33.81;31.58;37.90;;
69609;Laerm;56815;52.320;4.858;2022-08-06T00:39:27;34.35;32.00;37.96;;
69609;Laerm;56815;52.320;4.858;2022-08-06T00:39:37;34.50;32.53;37.74;;
69609;Laerm;56815;52.320;4.858;2022-08-06T00:39:47;34.14;31.78;36.16;;
69609;Laerm;56815;52.320;4.858;2022-08-06T00:39:58;33.79;31.46;35.41;;
69609;Laerm;56815;52.320;4.858;2022-08-06T00:40:09;34.13;32.09;37.96;;
69609;Laerm;56815;52.320;4.858;2022-08-06T00:40:20;34.43;32.14;36.12;;
69609;Laerm;56815;52.320;4.858;2022-08-06T00:40:31;34.51;32.18;41.85;;
69609;Laerm;56815;52.320;4.858;2022-08-06T00:40:41;33.83;32.00;35.51;;
69609;Laerm;56815;52.320;4.858;2022-08-06T00:40:52;34.10;31.94;36.36;;
69609;Laerm;56815;52.320;4.858;2022-08-06T00:41:03;33.86;31.88;35.81;;
69609;Laerm;56815;52.320;4.858;2022-08-06T00:41:13;34.16;31.94;35.72;;
69609;Laerm;56815;52.320;4.858;2022-08-06T00:41:24;34.33;32.16;36.68;;
69609;Laerm;56815;52.320;4.858;2022-08-06T00:41:35;35.71;32.79;38.90;;
69609;Laerm;56815;52.320;4.858;2022-08-06T00:41:46;38.85;34.33;43.19;;
69609;Laerm;56815;52.320;4.858;2022-08-06T00:41:57;44.47;39.24;50.05;;
69609;Laerm;56815;52.320;4.858;2022-08-06T00:42:07;45.32;40.25;49.36;;
69609;Laerm;56815;52.320;4.858;2022-08-06T00:42:18;43.29;39.36;47.51;;
69609;Laerm;56815;52.320;4.858;2022-08-06T00:42:28;41.19;36.56;45.82;;
69609;Laerm;56815;52.320;4.858;2022-08-06T00:42:39;39.11;35.13;42.72;;
69609;Laerm;56815;52.320;4.858;2022-08-06T00:42:50;45.00;36.98;54.76;;
69609;Laerm;56815;52.320;4.858;2022-08-06T00:43:01;37.40;34.01;41.27;;
69609;Laerm;56815;52.320;4.858;2022-08-06T00:43:12;38.00;34.57;42.37;;
69609;Laerm;56815;52.320;4.858;2022-08-06T00:43:23;37.53;33.27;43.77;;
69609;Laerm;56815;52.320;4.858;2022-08-06T00:43:33;37.82;33.99;42.37;;
69609;Laerm;56815;52.320;4.858;2022-08-06T00:43:44;37.05;32.78;43.94;;
69609;Laerm;56815;52.320;4.858;2022-08-06T00:43:54;36.34;33.35;40.13;;
69609;Laerm;56815;52.320;4.858;2022-08-06T00:44:06;35.36;32.88;38.94;;
69609;Laerm;56815;52.320;4.858;2022-08-06T00:44:16;34.63;32.36;37.55;;
69609;Laerm;56815;52.320;4.858;2022-08-06T00:44:26;34.42;32.52;37.00;;
69609;Laerm;56815;52.320;4.858;2022-08-06T00:44:37;33.98;32.05;36.41;;
69609;Laerm;56815;52.320;4.858;2022-08-06T00:44:48;33.82;31.55;36.84;;
69609;Laerm;56815;52.320;4.858;2022-08-06T00:44:58;33.83;31.82;36.15;;
69609;Laerm;56815;52.320;4.858;2022-08-06T00:45:10;33.77;31.54;35.72;;
69609;Laerm;56815;52.320;4.858;2022-08-06T00:45:20;33.69;31.63;35.66;;
69609;Laerm;56815;52.320;4.858;2022-08-06T00:45:34;34.42;32.13;37.19;;
69609;Laerm;56815;52.320;4.858;2022-08-06T00:45:45;34.34;32.28;36.91;;
69609;Laerm;56815;52.320;4.858;2022-08-06T00:45:55;34.01;31.68;35.78;;
69609;Laerm;56815;52.320;4.858;2022-08-06T00:46:06;34.89;32.69;37.17;;
69609;Laerm;56815;52.320;4.858;2022-08-06T00:46:16;34.71;32.47;37.20;;
69609;Laerm;56815;52.320;4.858;2022-08-06T00:46:26;34.81;32.65;37.46;;
69609;Laerm;56815;52.320;4.858;2022-08-06T00:46:37;34.35;32.18;36.75;;
69609;Laerm;56815;52.320;4.858;2022-08-06T00:46:47;34.34;32.22;36.24;;
69609;Laerm;56815;52.320;4.858;2022-08-06T00:46:59;34.27;32.24;37.38;;
69609;Laerm;56815;52.320;4.858;2022-08-06T00:47:09;34.26;32.26;36.76;;
69609;Laerm;56815;52.320;4.858;2022-08-06T00:47:19;35.21;32.62;39.98;;
69609;Laerm;56815;52.320;4.858;2022-08-06T00:47:30;36.29;32.31;45.02;;
69609;Laerm;56815;52.320;4.858;2022-08-06T00:47:40;36.33;31.96;42.97;;
69609;Laerm;56815;52.320;4.858;2022-08-06T00:47:51;36.00;32.93;42.54;;
69609;Laerm;56815;52.320;4.858;2022-08-06T00:48:01;35.68;32.92;39.49;;
69609;Laerm;56815;52.320;4.858;2022-08-06T00:48:12;34.82;32.94;36.63;;
69609;Laerm;56815;52.320;4.858;2022-08-06T00:48:23;35.08;32.91;37.73;;
69609;Laerm;56815;52.320;4.858;2022-08-06T00:48:34;35.06;33.35;37.45;;
69609;Laerm;56815;52.320;4.858;2022-08-06T00:48:44;34.10;32.31;36.23;;
69609;Laerm;56815;52.320;4.858;2022-08-06T00:48:54;33.58;31.52;35.07;;
69609;Laerm;56815;52.320;4.858;2022-08-06T00:49:05;33.58;31.65;35.40;;
69609;Laerm;56815;52.320;4.858;2022-08-06T00:49:15;34.73;31.73;36.51;;
69609;Laerm;56815;52.320;4.858;2022-08-06T00:49:25;34.34;31.80;36.80;;
69609;Laerm;56815;52.320;4.858;2022-08-06T00:49:36;34.56;32.41;36.93;;
69609;Laerm;56815;52.320;4.858;2022-08-06T00:49:46;35.11;32.95;37.18;;
69609;Laerm;56815;52.320;4.858;2022-08-06T00:49:56;34.70;31.77;36.92;;
69609;Laerm;56815;52.320;4.858;2022-08-06T00:50:07;34.91;33.34;36.67;;
69609;Laerm;56815;52.320;4.858;2022-08-06T00:50:17;34.48;32.16;36.57;;
69609;Laerm;56815;52.320;4.858;2022-08-06T00:50:29;34.07;32.43;40.85;;
69609;Laerm;56815;52.320;4.858;2022-08-06T00:50:39;34.00;31.60;35.85;;
69609;Laerm;56815;52.320;4.858;2022-08-06T00:50:50;34.07;32.24;35.64;;
69609;Laerm;56815;52.320;4.858;2022-08-06T00:51:00;34.20;32.20;35.79;;
69609;Laerm;56815;52.320;4.858;2022-08-06T00:51:10;34.79;32.82;37.23;;
69609;Laerm;56815;52.320;4.858;2022-08-06T00:51:21;34.76;32.85;36.56;;
69609;Laerm;56815;52.320;4.858;2022-08-06T00:51:31;34.55;32.67;36.48;;
69609;Laerm;56815;52.320;4.858;2022-08-06T00:51:44;34.55;32.54;38.51;;
69609;Laerm;56815;52.320;4.858;2022-08-06T00:51:55;33.97;31.68;36.49;;
69609;Laerm;56815;52.320;4.858;2022-08-06T00:52:05;34.92;32.00;37.41;;
69609;Laerm;56815;52.320;4.858;2022-08-06T00:52:16;35.03;32.75;37.09;;
69609;Laerm;56815;52.320;4.858;2022-08-06T00:52:26;33.86;31.49;35.89;;
69609;Laerm;56815;52.320;4.858;2022-08-06T00:52:36;34.42;32.34;36.60;;
69609;Laerm;56815;52.320;4.858;2022-08-06T00:52:47;34.52;32.09;36.33;;
69609;Laerm;56815;52.320;4.858;2022-08-06T00:52:58;33.66;31.90;35.64;;
69609;Laerm;56815;52.320;4.858;2022-08-06T00:53:08;33.64;32.05;35.26;;
69609;Laerm;56815;52.320;4.858;2022-08-06T00:53:19;33.52;31.88;35.37;;
69609;Laerm;56815;52.320;4.858;2022-08-06T00:53:29;33.58;31.67;35.42;;
69609;Laerm;56815;52.320;4.858;2022-08-06T00:53:40;33.28;31.28;35.50;;
69609;Laerm;56815;52.320;4.858;2022-08-06T00:53:51;32.89;31.19;34.43;;
69609;Laerm;56815;52.320;4.858;2022-08-06T00:54:01;33.27;31.17;35.12;;
69609;Laerm;56815;52.320;4.858;2022-08-06T00:54:12;34.05;32.04;36.09;;
69609;Laerm;56815;52.320;4.858;2022-08-06T00:54:22;33.20;31.06;35.17;;
69609;Laerm;56815;52.320;4.858;2022-08-06T00:54:32;33.06;31.32;34.68;;
69609;Laerm;56815;52.320;4.858;2022-08-06T00:54:43;33.28;31.38;35.39;;
69609;Laerm;56815;52.320;4.858;2022-08-06T00:54:53;32.73;30.83;34.64;;
69609;Laerm;56815;52.320;4.858;2022-08-06T00:55:04;34.09;32.16;36.07;;
69609;Laerm;56815;52.320;4.858;2022-08-06T00:55:14;33.55;31.90;35.64;;
69609;Laerm;56815;52.320;4.858;2022-08-06T00:55:24;32.83;30.07;35.00;;
69609;Laerm;56815;52.320;4.858;2022-08-06T00:55:34;32.59;31.06;34.02;;
69609;Laerm;56815;52.320;4.858;2022-08-06T00:55:45;32.75;30.59;34.33;;
69609;Laerm;56815;52.320;4.858;2022-08-06T00:55:58;35.17;30.99;42.54;;
69609;Laerm;56815;52.320;4.858;2022-08-06T00:56:08;50.24;33.59;61.60;;
69609;Laerm;56815;52.320;4.858;2022-08-06T00:56:19;34.00;31.82;41.37;;
69609;Laerm;56815;52.320;4.858;2022-08-06T00:56:30;34.17;31.54;38.35;;
69609;Laerm;56815;52.320;4.858;2022-08-06T00:56:40;33.63;31.15;36.21;;
69609;Laerm;56815;52.320;4.858;2022-08-06T00:56:50;33.00;31.03;36.21;;
69609;Laerm;56815;52.320;4.858;2022-08-06T00:57:01;33.28;30.80;37.26;;
69609;Laerm;56815;52.320;4.858;2022-08-06T00:57:11;33.22;31.18;35.81;;
69609;Laerm;56815;52.320;4.858;2022-08-06T00:57:21;33.81;31.56;36.60;;
69609;Laerm;56815;52.320;4.858;2022-08-06T00:57:32;34.48;32.33;37.27;;
69609;Laerm;56815;52.320;4.858;2022-08-06T00:57:42;34.34;32.03;37.32;;
69609;Laerm;56815;52.320;4.858;2022-08-06T00:57:53;35.00;32.71;37.97;;
69609;Laerm;56815;52.320;4.858;2022-08-06T00:58:04;34.41;32.27;37.05;;
69609;Laerm;56815;52.320;4.858;2022-08-06T00:58:15;37.83;33.03;45.24;;
69609;Laerm;56815;52.320;4.858;2022-08-06T00:58:25;46.15;38.15;54.65;;
69609;Laerm;56815;52.320;4.858;2022-08-06T00:58:35;34.02;31.69;40.73;;
69609;Laerm;56815;52.320;4.858;2022-08-06T00:58:46;34.28;32.59;36.85;;
69609;Laerm;56815;52.320;4.858;2022-08-06T00:58:56;33.96;32.06;35.74;;
69609;Laerm;56815;52.320;4.858;2022-08-06T00:59:06;35.27;32.83;37.74;;
69609;Laerm;56815;52.320;4.858;2022-08-06T00:59:17;35.17;32.50;40.72;;